createdAt,value
2024-05-09T00:00:39.188Z,14.60
2024-05-09T00:16:01.896Z,17.67
2024-05-09T00:18:32.032Z,14.97
2024-05-09T00:21:04.474Z,17.10
2024-05-09T00:23:34.109Z,14.97
2024-05-09T00:26:04.422Z,15.17
2024-05-09T00:28:34.043Z,13.33
2024-05-09T00:31:05.196Z,13.80
2024-05-09T00:37:49.429Z,15.60
2024-05-09T00:40:30.756Z,15.83
2024-05-09T00:47:32.631Z,15.40
2024-05-09T00:50:09.797Z,14.63
2024-05-09T00:52:43.566Z,15.60
2024-05-09T00:59:37.778Z,13.70
2024-05-09T01:02:08.769Z,15.17
2024-05-09T01:09:04.821Z,17.23
2024-05-09T01:11:42.904Z,13.87
2024-05-09T01:14:12.132Z,16.97
2024-05-09T01:16:42.012Z,15.13
2024-05-09T01:19:22.169Z,14.20
2024-05-09T01:21:52.054Z,19.30
2024-05-09T01:28:49.516Z,18.23
2024-05-09T01:31:19.070Z,19.13
2024-05-09T01:33:48.401Z,18.13
2024-05-09T01:36:18.590Z,17.70
2024-05-09T01:38:48.516Z,14.97
2024-05-09T01:41:19.284Z,17.83
2024-05-09T01:48:00.910Z,16.77
2024-05-09T01:50:38.141Z,16.13
2024-05-09T01:57:37.808Z,24.73
2024-05-09T02:00:10.309Z,39.97
2024-05-09T02:02:41.821Z,47.40
2024-05-09T02:05:12.908Z,43.67
2024-05-09T02:07:43.822Z,47.13
2024-05-09T02:10:16.704Z,49.83
2024-05-09T02:12:53.841Z,46.33
2024-05-09T02:15:22.912Z,47.47
2024-05-09T02:17:53.335Z,37.67
2024-05-09T02:20:30.537Z,38.03
2024-05-09T02:23:11.552Z,42.73
2024-05-09T02:25:44.125Z,40.70
2024-05-09T02:28:14.001Z,36.23
2024-05-09T02:30:42.808Z,34.03
2024-05-09T02:33:13.314Z,30.97
2024-05-09T02:35:48.304Z,33.53
2024-05-09T02:38:24.228Z,33.70
2024-05-09T02:40:57.388Z,36.10
2024-05-09T02:47:58.302Z,31.47
2024-05-09T02:50:34.480Z,31.70
2024-05-09T02:57:34.584Z,29.87
2024-05-09T03:00:26.462Z,27.97
2024-05-09T03:03:16.225Z,26.03
2024-05-09T03:05:51.963Z,25.53
2024-05-09T03:08:33.879Z,26.13
2024-05-09T03:11:28.233Z,26.37
2024-05-09T03:18:32.309Z,28.43
2024-05-09T03:21:07.044Z,28.67
2024-05-09T03:23:48.798Z,29.30
2024-05-09T03:29:22.351Z,30.67
2024-05-09T03:32:41.423Z,29.70
2024-05-09T03:35:15.102Z,33.23
2024-05-09T03:37:56.227Z,29.07
2024-05-09T03:47:48.592Z,28.23
2024-05-09T03:50:29.826Z,30.53
2024-05-09T03:53:09.477Z,46.50
2024-05-09T04:09:23.714Z,24.33
2024-05-09T04:15:04.941Z,22.37
2024-05-09T04:20:49.298Z,22.57
2024-05-09T04:23:23.836Z,26.83
2024-05-09T04:30:10.099Z,28.43
2024-05-09T04:32:45.022Z,20.50
2024-05-09T04:39:27.286Z,24.77
2024-05-09T04:41:58.046Z,20.23
2024-05-09T04:48:53.221Z,19.73
2024-05-09T04:51:24.282Z,19.67
2024-05-09T04:58:22.404Z,21.20
2024-05-09T05:00:52.379Z,19.83
2024-05-09T05:03:22.641Z,19.90
2024-05-09T05:05:52.480Z,18.73
2024-05-09T05:08:22.732Z,18.97
2024-05-09T05:10:53.046Z,21.77
2024-05-09T05:17:55.548Z,25.53
2024-05-09T05:20:32.711Z,22.47
2024-05-09T05:23:04.080Z,23.50
2024-05-09T05:25:33.872Z,20.37
2024-05-09T05:28:03.785Z,20.47
2024-05-09T05:30:35.274Z,22.60
2024-05-09T05:37:18.722Z,22.77
2024-05-09T05:39:47.966Z,27.63
2024-05-09T05:42:18.078Z,38.77
2024-05-09T05:49:06.523Z,24.03
2024-05-09T05:51:37.119Z,27.70
2024-05-09T05:58:32.274Z,26.33
2024-05-09T06:01:02.930Z,25.77
2024-05-09T06:07:57.391Z,29.33
2024-05-09T06:10:35.045Z,30.10
2024-05-09T06:13:12.035Z,32.53
2024-05-09T06:15:44.023Z,27.27
2024-05-09T06:18:15.966Z,25.67
2024-05-09T06:20:46.656Z,27.47
2024-05-09T06:23:15.867Z,25.90
2024-05-09T06:25:46.075Z,29.40
2024-05-09T06:28:14.733Z,37.63
2024-05-09T06:30:43.765Z,30.10
2024-05-09T06:33:15.820Z,31.67
2024-05-09T06:35:47.899Z,31.60
2024-05-09T06:38:19.088Z,26.00
2024-05-09T06:40:49.011Z,26.53
2024-05-09T06:47:37.207Z,26.07
2024-05-09T06:50:13.108Z,28.60
2024-05-09T06:57:12.263Z,32.93
2024-05-09T06:59:42.265Z,33.23
2024-05-09T07:02:12.410Z,32.17
2024-05-09T07:04:42.489Z,33.53
2024-05-09T07:07:12.411Z,36.07
2024-05-09T07:09:40.972Z,37.93
2024-05-09T07:12:10.629Z,32.07
2024-05-09T07:18:59.834Z,34.07
2024-05-09T07:21:29.641Z,32.60
2024-05-09T07:24:00.609Z,32.27
2024-05-09T07:26:30.759Z,35.40
2024-05-09T07:29:00.722Z,36.70
2024-05-09T07:31:31.229Z,31.33
2024-05-09T07:34:01.812Z,33.80
2024-05-09T07:36:33.139Z,30.53
2024-05-09T07:39:03.792Z,31.30
2024-05-09T07:41:33.963Z,33.63
2024-05-09T07:50:01.144Z,36.03
2024-05-09T07:58:19.236Z,35.03
2024-05-09T08:05:11.527Z,36.03
2024-05-09T08:12:10.671Z,38.27
2024-05-09T08:19:10.573Z,39.07
2024-05-09T08:21:41.836Z,40.70
2024-05-09T08:24:12.851Z,36.97
2024-05-09T08:26:43.157Z,41.03
2024-05-09T08:36:45.187Z,41.37
2024-05-09T08:43:47.073Z,41.43
2024-05-09T08:46:19.811Z,40.37
2024-05-09T08:48:51.071Z,41.40
2024-05-09T08:51:20.965Z,38.03
2024-05-09T08:58:27.821Z,35.83
2024-05-09T09:01:33.252Z,33.93
2024-05-09T09:12:38.857Z,38.60
2024-05-09T09:19:27.390Z,37.20
2024-05-09T09:21:57.323Z,37.17
2024-05-09T09:24:28.405Z,36.03
2024-05-09T09:27:00.186Z,36.10
2024-05-09T09:29:29.462Z,35.50
2024-05-09T09:32:02.160Z,39.07
2024-05-09T09:38:45.769Z,32.77
2024-05-09T09:41:19.117Z,39.63
2024-05-09T09:48:16.009Z,34.23
2024-05-09T09:50:45.818Z,36.50
2024-05-09T09:57:37.883Z,35.73
2024-05-09T10:00:11.778Z,33.53
2024-05-09T10:02:44.230Z,35.43
2024-05-09T10:05:13.494Z,32.57
2024-05-09T10:07:45.824Z,32.50
2024-05-09T10:10:16.608Z,34.90
2024-05-09T10:13:01.251Z,33.50
2024-05-09T10:15:30.968Z,33.37
2024-05-09T10:18:07.514Z,30.17
2024-05-09T10:20:46.757Z,31.73
2024-05-09T10:23:28.685Z,32.10
2024-05-09T10:26:05.210Z,27.23
2024-05-09T10:28:37.356Z,33.07
2024-05-09T10:31:16.474Z,32.77
2024-05-09T10:37:58.527Z,27.97
2024-05-09T10:40:31.357Z,27.77
2024-05-09T10:43:05.789Z,29.67
2024-05-09T10:45:36.944Z,30.47
2024-05-09T10:48:07.718Z,25.97
2024-05-09T10:50:38.593Z,25.27
2024-05-09T10:53:07.615Z,24.67
2024-05-09T10:55:36.779Z,22.93
2024-05-09T10:58:08.017Z,24.57
2024-05-09T11:00:39.038Z,25.37
2024-05-09T11:03:11.889Z,26.70
2024-05-09T11:05:44.419Z,22.00
2024-05-09T11:08:13.887Z,23.53
2024-05-09T11:10:44.135Z,34.43
2024-05-09T11:17:27.164Z,23.90
2024-05-09T11:29:00.217Z,25.47
2024-05-09T11:31:30.675Z,21.70
2024-05-09T11:34:01.567Z,24.63
2024-05-09T11:36:31.551Z,24.73
2024-05-09T11:39:01.064Z,25.30
2024-05-09T11:41:32.792Z,25.93
2024-05-09T11:48:29.278Z,22.33
2024-05-09T11:50:58.896Z,23.87
2024-05-09T11:57:54.766Z,21.83
2024-05-09T12:04:44.667Z,19.27
2024-05-09T12:07:14.776Z,22.47
2024-05-09T12:09:43.739Z,20.53
2024-05-09T12:12:13.253Z,20.13
2024-05-09T12:19:08.783Z,18.90
2024-05-09T12:21:38.428Z,19.50
2024-05-09T12:24:07.810Z,18.90
2024-05-09T12:26:37.477Z,18.43
2024-05-09T12:29:07.089Z,19.50
2024-05-09T12:31:36.127Z,17.80
2024-05-09T12:38:20.018Z,17.33
2024-05-09T12:40:48.771Z,17.50
2024-05-09T12:43:18.691Z,15.23
2024-05-09T12:45:48.872Z,16.03
2024-05-09T12:48:17.858Z,14.00
2024-05-09T12:50:47.589Z,14.80
2024-05-09T12:57:42.191Z,15.53
2024-05-09T13:00:23.236Z,19.70
2024-05-09T13:02:57.570Z,18.10
2024-05-09T13:05:26.533Z,20.07
2024-05-09T13:07:56.000Z,18.63
2024-05-09T13:14:50.238Z,15.90
2024-05-09T13:21:40.018Z,14.57
2024-05-09T13:24:09.335Z,16.33
2024-05-09T13:26:40.298Z,17.33
2024-05-09T13:29:09.319Z,15.13
2024-05-09T13:31:38.548Z,13.57
2024-05-09T13:38:21.595Z,15.07
2024-05-09T13:40:51.232Z,16.10
2024-05-09T13:47:41.287Z,18.13
2024-05-09T13:50:16.918Z,14.87
2024-05-09T13:52:53.825Z,16.93
2024-05-09T13:55:24.856Z,14.60
2024-05-09T13:57:54.175Z,14.67
2024-05-09T14:00:37.803Z,14.70
2024-05-09T14:03:13.168Z,17.03
2024-05-09T14:05:43.285Z,16.57
2024-05-09T14:08:15.068Z,13.40
2024-05-09T14:15:17.466Z,13.33
2024-05-09T14:17:47.479Z,13.23
2024-05-09T14:20:23.874Z,9.93
2024-05-09T14:23:03.224Z,11.73
2024-05-09T14:25:37.675Z,12.67
2024-05-09T14:28:09.718Z,13.60
2024-05-09T14:30:39.853Z,16.53
2024-05-09T14:33:10.336Z,11.73
2024-05-09T14:35:39.941Z,15.30
2024-05-09T14:38:09.256Z,14.23
2024-05-09T14:40:42.719Z,15.00
2024-05-09T14:47:37.646Z,13.33
2024-05-09T14:50:11.080Z,16.50
2024-05-09T14:52:44.987Z,15.97
2024-05-09T14:59:32.052Z,13.37
2024-05-09T15:06:28.347Z,13.07
2024-05-09T15:08:59.083Z,11.87
2024-05-09T15:11:29.143Z,12.67
2024-05-09T15:13:58.749Z,14.50
2024-05-09T15:16:29.227Z,13.43
2024-05-09T15:18:59.368Z,10.93
2024-05-09T15:21:29.369Z,10.63
2024-05-09T15:24:00.178Z,10.03
2024-05-09T15:31:02.182Z,15.67
2024-05-09T15:33:32.252Z,16.13
2024-05-09T15:36:02.148Z,13.67
2024-05-09T15:38:31.370Z,15.40
2024-05-09T15:41:00.356Z,13.73
2024-05-09T15:47:48.812Z,14.67
2024-05-09T15:50:28.199Z,16.33
2024-05-09T15:53:05.436Z,15.83
2024-05-09T15:55:34.939Z,17.13
2024-05-09T15:58:05.156Z,13.63
2024-05-09T16:00:39.219Z,16.00
2024-05-09T16:07:38.695Z,13.80
2024-05-09T16:10:11.102Z,16.33
2024-05-09T16:12:42.353Z,17.20
2024-05-09T16:19:25.137Z,13.73
2024-05-09T16:21:54.511Z,13.23
2024-05-09T16:28:50.314Z,15.47
2024-05-09T16:31:20.220Z,12.67
2024-05-09T16:38:22.996Z,13.97
2024-05-09T16:40:52.159Z,13.53
2024-05-09T16:47:35.855Z,12.67
2024-05-09T16:50:10.724Z,15.37
2024-05-09T16:52:42.225Z,16.37
2024-05-09T16:59:23.324Z,12.23
2024-05-09T17:01:53.077Z,17.00
2024-05-09T17:04:22.658Z,13.63
2024-05-09T17:06:51.672Z,16.30
2024-05-09T17:09:23.400Z,15.00
2024-05-09T17:11:51.719Z,12.77
2024-05-09T17:18:48.115Z,11.40
2024-05-09T17:21:17.826Z,12.30
2024-05-09T17:23:46.937Z,15.43
2024-05-09T17:26:17.125Z,15.13
2024-05-09T17:28:46.901Z,11.13
2024-05-09T17:31:15.855Z,14.53
2024-05-09T17:33:45.443Z,12.93
2024-05-09T17:36:14.054Z,11.47
2024-05-09T17:38:45.209Z,9.57
2024-05-09T17:41:16.276Z,12.57
2024-05-09T17:48:13.472Z,11.57
2024-05-09T17:50:45.598Z,11.77
2024-05-09T17:53:15.496Z,12.20
2024-05-09T17:55:44.904Z,10.70
2024-05-09T17:58:14.279Z,13.07
2024-05-09T18:00:43.966Z,10.77
2024-05-09T18:03:13.568Z,9.87
2024-05-09T18:05:45.193Z,11.40
2024-05-09T18:08:25.176Z,9.93
2024-05-09T18:15:28.475Z,10.07
2024-05-09T18:18:00.170Z,11.83
2024-05-09T18:20:38.125Z,9.93
2024-05-09T18:23:18.095Z,9.07
2024-05-09T18:25:49.801Z,11.50
2024-05-09T18:28:19.887Z,10.83
2024-05-09T18:30:50.850Z,10.53
2024-05-09T18:37:47.241Z,12.07
2024-05-09T18:40:33.012Z,10.17
2024-05-09T18:43:17.644Z,11.27
2024-05-09T18:50:03.812Z,12.97
2024-05-09T18:52:35.382Z,13.97
2024-05-09T18:59:33.120Z,10.37
2024-05-09T19:02:03.295Z,10.30
2024-05-09T19:04:35.276Z,11.03
2024-05-09T19:07:09.706Z,10.23
2024-05-09T19:09:50.300Z,11.30
2024-05-09T19:12:27.572Z,9.93
2024-05-09T19:19:11.676Z,12.20
2024-05-09T19:21:42.911Z,15.97
2024-05-09T19:24:12.376Z,11.13
2024-05-09T19:26:41.369Z,12.50
2024-05-09T19:29:10.659Z,15.60
2024-05-09T19:31:41.202Z,12.13
2024-05-09T19:38:55.645Z,13.70
2024-05-09T19:43:06.987Z,15.17
2024-05-09T19:50:13.940Z,15.10
2024-05-09T19:52:49.255Z,18.37
2024-05-09T19:59:43.988Z,14.87
2024-05-09T20:02:14.742Z,14.13
2024-05-09T20:10:13.262Z,15.53
2024-05-09T20:12:50.338Z,17.20
2024-05-09T20:15:22.778Z,18.37
2024-05-09T20:17:59.180Z,19.70
2024-05-09T20:24:43.268Z,16.57
2024-05-09T20:27:16.464Z,16.43
2024-05-09T20:34:16.636Z,19.73
2024-05-09T20:36:49.780Z,17.13
2024-05-09T20:40:00.316Z,18.80
2024-05-09T20:42:32.854Z,20.07
2024-05-09T20:49:30.001Z,25.87
2024-05-09T20:52:04.664Z,22.43
2024-05-09T20:54:40.025Z,22.60
2024-05-09T20:57:09.669Z,21.30
2024-05-09T20:59:40.091Z,23.83
2024-05-09T21:02:11.018Z,22.30
2024-05-09T21:09:08.193Z,23.20
2024-05-09T21:11:38.055Z,21.83
2024-05-09T21:14:07.117Z,30.13
2024-05-09T21:16:36.559Z,25.43
2024-05-09T21:19:06.115Z,27.37
2024-05-09T21:21:42.328Z,22.83
2024-05-09T21:24:14.144Z,26.60
2024-05-09T21:26:43.401Z,24.73
2024-05-09T21:33:39.504Z,23.40
2024-05-09T21:36:13.445Z,22.47
2024-05-09T21:38:46.607Z,26.60
2024-05-09T21:41:20.773Z,23.90
2024-05-09T21:48:07.916Z,24.97
2024-05-09T21:50:41.114Z,25.70
2024-05-09T21:53:13.966Z,27.77
2024-05-09T21:55:47.650Z,26.00
2024-05-09T21:58:17.890Z,27.40
2024-05-09T22:00:47.872Z,32.30
2024-05-09T22:03:18.486Z,26.00
2024-05-09T22:05:48.844Z,27.47
2024-05-09T22:12:32.306Z,27.43
2024-05-09T22:15:03.081Z,28.03
2024-05-09T22:17:32.502Z,30.87
2024-05-09T22:20:02.180Z,29.50
2024-05-09T22:22:32.507Z,28.27
2024-05-09T22:29:29.212Z,29.27
2024-05-09T22:32:00.246Z,27.40
2024-05-09T22:38:55.520Z,30.20
2024-05-09T22:41:24.871Z,28.63
2024-05-09T22:48:13.752Z,28.30
2024-05-09T22:50:42.683Z,29.20
2024-05-09T22:53:11.751Z,27.97
2024-05-09T22:55:41.629Z,30.37
2024-05-09T22:58:10.708Z,30.30
2024-05-09T23:00:40.576Z,27.10
2024-05-09T23:03:09.837Z,27.87
2024-05-09T23:05:39.848Z,26.43
2024-05-09T23:08:10.957Z,31.70
2024-05-09T23:10:41.217Z,28.40
2024-05-09T23:13:31.049Z,27.60
2024-05-09T23:16:01.333Z,29.93
2024-05-09T23:18:31.158Z,27.33
2024-05-09T23:25:12.145Z,31.50
2024-05-09T23:27:42.379Z,31.77
2024-05-09T23:30:15.278Z,32.13
2024-05-09T23:32:47.746Z,28.87
2024-05-09T23:39:41.447Z,31.90
2024-05-09T23:42:11.694Z,31.67
2024-05-09T23:49:13.817Z,31.73
2024-05-09T23:51:42.869Z,30.87
2024-05-09T23:54:12.549Z,30.17
2024-05-09T23:56:41.697Z,29.97
2024-05-09T23:59:11.616Z,31.87
